sensor_id;sensor_type;location;lat;lon;timestamp;pressure;altitude;pressure_sealevel;temperature;humidity
5284;BME280;15377;48.540;9.268;2022-07-29T00:00:11;97240.00;;;18.22;100.00
5284;BME280;15377;48.540;9.268;2022-07-29T00:02:36;97237.31;;;18.35;100.00
5284;BME280;15377;48.540;9.268;2022-07-29T00:05:03;97234.06;;;18.31;100.00
5284;BME280;15377;48.540;9.268;2022-07-29T00:07:29;97239.06;;;18.38;100.00
5284;BME280;15377;48.540;9.268;2022-07-29T00:09:55;97229.25;;;18.32;100.00
5284;BME280;15377;48.540;9.268;2022-07-29T00:12:22;97231.97;;;18.37;100.00
5284;BME280;15377;48.540;9.268;2022-07-29T00:14:49;97205.50;;;18.25;100.00
5284;BME280;15377;48.540;9.268;2022-07-29T00:17:14;97203.03;;;18.22;100.00
5284;BME280;15377;48.540;9.268;2022-07-29T00:19:40;97212.78;;;18.28;100.00
5284;BME280;15377;48.540;9.268;2022-07-29T00:22:06;97230.44;;;18.36;100.00
5284;BME280;15377;48.540;9.268;2022-07-29T00:24:31;97200.44;;;18.24;100.00
5284;BME280;15377;48.540;9.268;2022-07-29T00:26:57;97203.25;;;18.24;100.00
5284;BME280;15377;48.540;9.268;2022-07-29T00:29:22;97222.16;;;18.31;100.00
5284;BME280;15377;48.540;9.268;2022-07-29T00:31:48;97201.97;;;18.25;100.00
5284;BME280;15377;48.540;9.268;2022-07-29T00:34:13;97204.22;;;18.26;100.00
5284;BME280;15377;48.540;9.268;2022-07-29T00:36:57;97217.63;;;18.28;100.00
5284;BME280;15377;48.540;9.268;2022-07-29T00:39:23;97197.44;;;18.22;100.00
5284;BME280;15377;48.540;9.268;2022-07-29T00:41:49;97187.59;;;18.21;100.00
5284;BME280;15377;48.540;9.268;2022-07-29T00:44:14;97191.44;;;18.18;100.00
5284;BME280;15377;48.540;9.268;2022-07-29T00:46:39;97208.28;;;18.25;100.00
5284;BME280;15377;48.540;9.268;2022-07-29T00:49:05;97183.69;;;17.92;100.00
5284;BME280;15377;48.540;9.268;2022-07-29T00:51:32;97213.56;;;18.10;100.00
5284;BME280;15377;48.540;9.268;2022-07-29T00:53:59;97211.00;;;18.12;100.00
5284;BME280;15377;48.540;9.268;2022-07-29T00:56:24;97203.69;;;18.09;100.00
5284;BME280;15377;48.540;9.268;2022-07-29T00:58:50;97198.94;;;18.04;100.00
5284;BME280;15377;48.540;9.268;2022-07-29T01:01:16;97188.88;;;18.01;100.00
5284;BME280;15377;48.540;9.268;2022-07-29T01:03:41;97181.94;;;17.89;100.00
5284;BME280;15377;48.540;9.268;2022-07-29T01:06:06;97189.03;;;17.90;100.00
5284;BME280;15377;48.540;9.268;2022-07-29T01:08:32;97199.09;;;17.93;100.00
5284;BME280;15377;48.540;9.268;2022-07-29T01:10:59;97179.22;;;17.84;100.00
5284;BME280;15377;48.540;9.268;2022-07-29T01:13:26;97195.63;;;17.87;100.00
5284;BME280;15377;48.540;9.268;2022-07-29T01:15:59;97176.50;;;17.78;100.00
5284;BME280;15377;48.540;9.268;2022-07-29T01:18:34;97164.03;;;17.66;100.00
5284;BME280;15377;48.540;9.268;2022-07-29T01:26:34;97175.81;;;17.72;100.00
5284;BME280;15377;48.540;9.268;2022-07-29T01:29:21;97185.66;;;17.73;100.00
5284;BME280;15377;48.540;9.268;2022-07-29T01:31:58;97188.00;;;17.69;100.00
5284;BME280;15377;48.540;9.268;2022-07-29T01:39:36;97171.22;;;17.56;100.00
5284;BME280;15377;48.540;9.268;2022-07-29T01:42:14;97167.88;;;17.39;100.00
5284;BME280;15377;48.540;9.268;2022-07-29T01:47:40;97173.28;;;17.50;100.00
5284;BME280;15377;48.540;9.268;2022-07-29T01:50:11;97173.78;;;17.54;100.00
5284;BME280;15377;48.540;9.268;2022-07-29T01:52:52;97181.34;;;17.54;100.00
5284;BME280;15377;48.540;9.268;2022-07-29T01:55:20;97177.84;;;17.53;100.00
5284;BME280;15377;48.540;9.268;2022-07-29T01:57:48;97181.53;;;17.61;100.00
5284;BME280;15377;48.540;9.268;2022-07-29T02:00:15;97170.28;;;17.48;100.00
5284;BME280;15377;48.540;9.268;2022-07-29T02:02:43;97185.38;;;17.58;100.00
5284;BME280;15377;48.540;9.268;2022-07-29T02:05:14;97165.09;;;17.39;100.00
5284;BME280;15377;48.540;9.268;2022-07-29T02:07:41;97171.56;;;17.47;100.00
5284;BME280;15377;48.540;9.268;2022-07-29T02:10:09;97149.69;;;17.38;100.00
5284;BME280;15377;48.540;9.268;2022-07-29T02:12:35;97171.34;;;17.45;100.00
5284;BME280;15377;48.540;9.268;2022-07-29T02:15:04;97167.50;;;17.48;100.00
5284;BME280;15377;48.540;9.268;2022-07-29T02:17:44;97167.50;;;17.48;100.00
5284;BME280;15377;48.540;9.268;2022-07-29T02:20:11;97151.94;;;17.40;100.00
5284;BME280;15377;48.540;9.268;2022-07-29T02:22:39;97169.25;;;17.51;100.00
5284;BME280;15377;48.540;9.268;2022-07-29T02:25:06;97153.16;;;17.44;100.00
5284;BME280;15377;48.540;9.268;2022-07-29T02:27:34;97158.72;;;17.44;100.00
5284;BME280;15377;48.540;9.268;2022-07-29T02:30:01;97156.25;;;17.35;100.00
5284;BME280;15377;48.540;9.268;2022-07-29T02:32:28;97177.50;;;17.38;100.00
5284;BME280;15377;48.540;9.268;2022-07-29T02:34:55;97171.94;;;17.38;100.00
5284;BME280;15377;48.540;9.268;2022-07-29T02:37:22;97164.00;;;17.18;100.00
5284;BME280;15377;48.540;9.268;2022-07-29T02:39:52;97168.72;;;17.29;100.00
5284;BME280;15377;48.540;9.268;2022-07-29T02:42:21;97141.44;;;17.03;100.00
5284;BME280;15377;48.540;9.268;2022-07-29T02:44:48;97171.31;;;17.21;100.00
5284;BME280;15377;48.540;9.268;2022-07-29T02:47:17;97166.84;;;17.13;100.00
5284;BME280;15377;48.540;9.268;2022-07-29T02:52:26;97148.25;;;17.02;100.00
5284;BME280;15377;48.540;9.268;2022-07-29T02:55:02;97162.63;;;17.06;100.00
5284;BME280;15377;48.540;9.268;2022-07-29T02:57:36;97150.88;;;16.95;100.00
5284;BME280;15377;48.540;9.268;2022-07-29T03:00:06;97170.75;;;17.04;100.00
5284;BME280;15377;48.540;9.268;2022-07-29T03:02:36;97157.63;;;16.99;100.00
5284;BME280;15377;48.540;9.268;2022-07-29T03:05:04;97162.34;;;17.10;100.00
5284;BME280;15377;48.540;9.268;2022-07-29T03:07:32;97158.34;;;17.05;100.00
5284;BME280;15377;48.540;9.268;2022-07-29T03:09:59;97145.03;;;16.98;100.00
5284;BME280;15377;48.540;9.268;2022-07-29T03:12:25;97155.09;;;17.01;100.00
5284;BME280;15377;48.540;9.268;2022-07-29T03:14:52;97168.34;;;17.14;100.00
5284;BME280;15377;48.540;9.268;2022-07-29T03:17:18;97154.41;;;16.95;100.00
5284;BME280;15377;48.540;9.268;2022-07-29T03:19:44;97150.63;;;16.93;100.00
5284;BME280;15377;48.540;9.268;2022-07-29T03:22:10;97162.97;;;16.97;100.00
5284;BME280;15377;48.540;9.268;2022-07-29T03:24:36;97157.19;;;16.95;100.00
5284;BME280;15377;48.540;9.268;2022-07-29T03:27:03;97174.81;;;17.03;100.00
5284;BME280;15377;48.540;9.268;2022-07-29T03:29:29;97164.06;;;16.89;100.00
5284;BME280;15377;48.540;9.268;2022-07-29T03:31:55;97166.94;;;16.78;100.00
5284;BME280;15377;48.540;9.268;2022-07-29T03:34:21;97168.94;;;16.77;100.00
5284;BME280;15377;48.540;9.268;2022-07-29T03:36:47;97154.31;;;16.77;100.00
5284;BME280;15377;48.540;9.268;2022-07-29T03:39:16;97158.31;;;16.81;100.00
5284;BME280;15377;48.540;9.268;2022-07-29T03:41:44;97157.09;;;16.77;100.00
5284;BME280;15377;48.540;9.268;2022-07-29T03:44:11;97165.66;;;16.79;100.00
5284;BME280;15377;48.540;9.268;2022-07-29T03:46:39;97156.56;;;16.78;100.00
5284;BME280;15377;48.540;9.268;2022-07-29T03:49:07;97162.94;;;16.73;100.00
5284;BME280;15377;48.540;9.268;2022-07-29T03:51:33;97169.22;;;16.74;100.00
5284;BME280;15377;48.540;9.268;2022-07-29T03:54:01;97177.78;;;16.81;100.00
5284;BME280;15377;48.540;9.268;2022-07-29T03:56:27;97173.66;;;16.88;100.00
5284;BME280;15377;48.540;9.268;2022-07-29T03:58:55;97182.44;;;16.97;100.00
5284;BME280;15377;48.540;9.268;2022-07-29T04:01:21;97156.72;;;16.91;100.00
5284;BME280;15377;48.540;9.268;2022-07-29T04:03:47;97173.25;;;17.08;100.00
5284;BME280;15377;48.540;9.268;2022-07-29T04:06:13;97173.75;;;17.06;100.00
5284;BME280;15377;48.540;9.268;2022-07-29T04:08:39;97178.50;;;17.11;100.00
5284;BME280;15377;48.540;9.268;2022-07-29T04:11:05;97180.47;;;17.16;100.00
5284;BME280;15377;48.540;9.268;2022-07-29T04:13:31;97183.72;;;17.20;100.00
5284;BME280;15377;48.540;9.268;2022-07-29T04:15:57;97167.44;;;17.06;100.00
5284;BME280;15377;48.540;9.268;2022-07-29T04:18:23;97188.53;;;17.20;100.00
5284;BME280;15377;48.540;9.268;2022-07-29T04:20:48;97191.03;;;17.23;100.00
5284;BME280;15377;48.540;9.268;2022-07-29T04:23:14;97188.31;;;17.18;100.00
5284;BME280;15377;48.540;9.268;2022-07-29T04:25:41;97191.88;;;17.13;100.00
5284;BME280;15377;48.540;9.268;2022-07-29T04:28:07;97177.91;;;16.94;100.00
5284;BME280;15377;48.540;9.268;2022-07-29T04:30:34;97202.13;;;16.99;100.00
5284;BME280;15377;48.540;9.268;2022-07-29T04:33:01;97187.34;;;16.86;100.00
5284;BME280;15377;48.540;9.268;2022-07-29T04:35:28;97205.75;;;16.89;100.00
5284;BME280;15377;48.540;9.268;2022-07-29T04:37:53;97209.03;;;16.87;100.00
5284;BME280;15377;48.540;9.268;2022-07-29T04:40:19;97206.84;;;16.80;100.00
5284;BME280;15377;48.540;9.268;2022-07-29T04:42:45;97206.34;;;16.76;100.00
5284;BME280;15377;48.540;9.268;2022-07-29T04:45:10;97196.97;;;16.79;100.00
5284;BME280;15377;48.540;9.268;2022-07-29T04:47:35;97195.00;;;16.74;100.00
5284;BME280;15377;48.540;9.268;2022-07-29T04:50:01;97201.56;;;16.77;100.00
5284;BME280;15377;48.540;9.268;2022-07-29T04:52:26;97192.22;;;16.74;100.00
5284;BME280;15377;48.540;9.268;2022-07-29T04:54:52;97206.84;;;16.80;100.00
5284;BME280;15377;48.540;9.268;2022-07-29T04:57:17;97164.84;;;16.54;100.00
5284;BME280;15377;48.540;9.268;2022-07-29T04:59:42;97207.78;;;16.88;100.00
5284;BME280;15377;48.540;9.268;2022-07-29T05:02:08;97203.16;;;16.96;100.00
5284;BME280;15377;48.540;9.268;2022-07-29T05:04:34;97207.41;;;17.03;100.00
5284;BME280;15377;48.540;9.268;2022-07-29T05:06:59;97199.00;;;17.08;100.00
5284;BME280;15377;48.540;9.268;2022-07-29T05:09:24;97197.16;;;17.16;100.00
5284;BME280;15377;48.540;9.268;2022-07-29T05:11:50;97200.13;;;17.24;100.00
5284;BME280;15377;48.540;9.268;2022-07-29T05:14:15;97184.06;;;17.11;100.00
5284;BME280;15377;48.540;9.268;2022-07-29T05:16:43;97197.06;;;17.27;100.00
5284;BME280;15377;48.540;9.268;2022-07-29T05:19:08;97181.16;;;17.22;100.00
5284;BME280;15377;48.540;9.268;2022-07-29T05:21:34;97204.97;;;17.47;100.00
5284;BME280;15377;48.540;9.268;2022-07-29T05:23:59;97198.28;;;17.56;100.00
5284;BME280;15377;48.540;9.268;2022-07-29T05:26:24;97212.78;;;17.73;100.00
5284;BME280;15377;48.540;9.268;2022-07-29T05:28:50;97213.91;;;17.83;100.00
5284;BME280;15377;48.540;9.268;2022-07-29T05:31:15;97217.78;;;17.98;100.00
5284;BME280;15377;48.540;9.268;2022-07-29T05:33:41;97201.00;;;18.04;100.00
5284;BME280;15377;48.540;9.268;2022-07-29T05:36:07;97217.47;;;18.20;100.00
5284;BME280;15377;48.540;9.268;2022-07-29T05:38:33;97211.59;;;18.24;100.00
5284;BME280;15377;48.540;9.268;2022-07-29T05:40:59;97221.88;;;18.34;100.00
5284;BME280;15377;48.540;9.268;2022-07-29T05:43:26;97204.75;;;18.43;100.00
5284;BME280;15377;48.540;9.268;2022-07-29T05:45:51;97200.16;;;18.64;100.00
5284;BME280;15377;48.540;9.268;2022-07-29T05:48:17;97206.56;;;18.90;100.00
5284;BME280;15377;48.540;9.268;2022-07-29T05:50:42;97221.09;;;19.15;100.00
5284;BME280;15377;48.540;9.268;2022-07-29T05:53:08;97219.44;;;19.25;100.00
5284;BME280;15377;48.540;9.268;2022-07-29T05:55:33;97224.94;;;19.30;100.00
5284;BME280;15377;48.540;9.268;2022-07-29T05:57:59;97223.00;;;19.38;100.00
5284;BME280;15377;48.540;9.268;2022-07-29T06:00:24;97204.56;;;19.35;100.00
5284;BME280;15377;48.540;9.268;2022-07-29T06:02:49;97240.09;;;19.61;100.00
5284;BME280;15377;48.540;9.268;2022-07-29T06:05:15;97234.50;;;19.61;100.00
5284;BME280;15377;48.540;9.268;2022-07-29T06:07:40;97250.28;;;19.71;100.00
5284;BME280;15377;48.540;9.268;2022-07-29T06:10:06;97255.25;;;19.78;100.00
5284;BME280;15377;48.540;9.268;2022-07-29T06:12:32;97258.25;;;19.80;100.00
5284;BME280;15377;48.540;9.268;2022-07-29T06:14:57;97255.78;;;19.90;100.00
5284;BME280;15377;48.540;9.268;2022-07-29T06:17:23;97257.72;;;19.95;100.00
5284;BME280;15377;48.540;9.268;2022-07-29T06:19:48;97252.34;;;19.97;100.00
5284;BME280;15377;48.540;9.268;2022-07-29T06:22:15;97248.25;;;19.98;100.00
5284;BME280;15377;48.540;9.268;2022-07-29T06:24:41;97259.63;;;20.00;100.00
5284;BME280;15377;48.540;9.268;2022-07-29T06:27:09;97258.06;;;20.04;100.00
5284;BME280;15377;48.540;9.268;2022-07-29T06:29:34;97249.75;;;19.99;100.00
5284;BME280;15377;48.540;9.268;2022-07-29T06:32:00;97251.50;;;20.15;100.00
5284;BME280;15377;48.540;9.268;2022-07-29T06:34:25;97258.56;;;20.29;100.00
5284;BME280;15377;48.540;9.268;2022-07-29T06:36:51;97253.63;;;20.35;100.00
5284;BME280;15377;48.540;9.268;2022-07-29T06:39:18;97266.47;;;20.51;100.00
5284;BME280;15377;48.540;9.268;2022-07-29T06:41:47;97261.50;;;20.57;100.00
5284;BME280;15377;48.540;9.268;2022-07-29T06:44:13;97254.50;;;20.63;100.00
5284;BME280;15377;48.540;9.268;2022-07-29T06:46:39;97258.00;;;20.77;100.00
5284;BME280;15377;48.540;9.268;2022-07-29T06:49:04;97276.53;;;21.00;100.00
5284;BME280;15377;48.540;9.268;2022-07-29T06:51:30;97269.53;;;21.07;100.00
5284;BME280;15377;48.540;9.268;2022-07-29T06:53:55;97266.25;;;21.36;100.00
5284;BME280;15377;48.540;9.268;2022-07-29T06:56:22;97279.88;;;21.60;100.00
5284;BME280;15377;48.540;9.268;2022-07-29T06:58:48;97283.47;;;21.89;100.00
5284;BME280;15377;48.540;9.268;2022-07-29T07:01:13;97281.47;;;21.97;100.00
5284;BME280;15377;48.540;9.268;2022-07-29T07:03:38;97297.78;;;22.34;100.00
5284;BME280;15377;48.540;9.268;2022-07-29T07:06:04;97295.91;;;22.36;100.00
5284;BME280;15377;48.540;9.268;2022-07-29T07:08:29;97308.94;;;22.54;100.00
5284;BME280;15377;48.540;9.268;2022-07-29T07:10:55;97297.94;;;22.64;100.00
5284;BME280;15377;48.540;9.268;2022-07-29T07:13:22;97298.38;;;22.83;100.00
5284;BME280;15377;48.540;9.268;2022-07-29T07:15:47;97309.47;;;22.96;100.00
5284;BME280;15377;48.540;9.268;2022-07-29T07:18:14;97321.31;;;23.16;100.00
5284;BME280;15377;48.540;9.268;2022-07-29T07:20:40;97322.47;;;23.21;100.00
5284;BME280;15377;48.540;9.268;2022-07-29T07:23:05;97322.47;;;23.28;100.00
5284;BME280;15377;48.540;9.268;2022-07-29T07:25:31;97321.88;;;23.22;100.00
5284;BME280;15377;48.540;9.268;2022-07-29T07:27:56;97332.31;;;23.07;100.00
5284;BME280;15377;48.540;9.268;2022-07-29T07:30:22;97328.69;;;22.92;100.00
5284;BME280;15377;48.540;9.268;2022-07-29T07:32:48;97321.34;;;22.74;100.00
5284;BME280;15377;48.540;9.268;2022-07-29T07:35:13;97320.88;;;22.98;100.00
5284;BME280;15377;48.540;9.268;2022-07-29T07:37:39;97328.38;;;23.02;100.00
5284;BME280;15377;48.540;9.268;2022-07-29T07:40:06;97326.03;;;23.29;100.00
5284;BME280;15377;48.540;9.268;2022-07-29T07:42:31;97340.09;;;23.36;100.00
5284;BME280;15377;48.540;9.268;2022-07-29T07:44:57;97342.00;;;23.56;100.00
5284;BME280;15377;48.540;9.268;2022-07-29T07:47:22;97341.97;;;23.71;100.00
5284;BME280;15377;48.540;9.268;2022-07-29T07:49:50;97342.72;;;23.79;100.00
5284;BME280;15377;48.540;9.268;2022-07-29T07:52:16;97339.75;;;23.77;100.00
5284;BME280;15377;48.540;9.268;2022-07-29T07:54:42;97340.31;;;23.83;100.00
5284;BME280;15377;48.540;9.268;2022-07-29T07:57:09;97352.69;;;23.80;100.00
5284;BME280;15377;48.540;9.268;2022-07-29T07:59:34;97336.38;;;23.56;100.00
5284;BME280;15377;48.540;9.268;2022-07-29T08:02:00;97343.66;;;23.59;100.00
5284;BME280;15377;48.540;9.268;2022-07-29T08:04:26;97342.19;;;23.73;100.00
5284;BME280;15377;48.540;9.268;2022-07-29T08:06:52;97354.34;;;23.83;100.00
5284;BME280;15377;48.540;9.268;2022-07-29T08:09:22;97351.56;;;23.98;100.00
5284;BME280;15377;48.540;9.268;2022-07-29T08:11:47;97344.25;;;24.10;100.00
5284;BME280;15377;48.540;9.268;2022-07-29T08:14:13;97346.13;;;24.00;100.00
5284;BME280;15377;48.540;9.268;2022-07-29T08:16:39;97361.47;;;24.07;100.00
5284;BME280;15377;48.540;9.268;2022-07-29T08:19:05;97337.84;;;24.17;100.00
5284;BME280;15377;48.540;9.268;2022-07-29T08:21:30;97349.09;;;24.17;100.00
5284;BME280;15377;48.540;9.268;2022-07-29T08:23:56;97347.06;;;24.10;100.00
5284;BME280;15377;48.540;9.268;2022-07-29T08:26:42;97354.00;;;24.17;100.00
5284;BME280;15377;48.540;9.268;2022-07-29T08:29:08;97341.06;;;24.14;100.00
5284;BME280;15377;48.540;9.268;2022-07-29T08:31:34;97346.84;;;24.23;100.00
5284;BME280;15377;48.540;9.268;2022-07-29T08:34:00;97341.97;;;24.31;100.00
5284;BME280;15377;48.540;9.268;2022-07-29T08:36:26;97347.19;;;24.42;100.00
5284;BME280;15377;48.540;9.268;2022-07-29T08:38:52;97345.69;;;24.49;100.00
5284;BME280;15377;48.540;9.268;2022-07-29T08:41:20;97341.94;;;24.46;100.00
5284;BME280;15377;48.540;9.268;2022-07-29T08:43:47;97350.94;;;24.52;100.00
5284;BME280;15377;48.540;9.268;2022-07-29T08:46:12;97342.88;;;24.41;100.00
5284;BME280;15377;48.540;9.268;2022-07-29T08:48:38;97342.13;;;24.33;100.00
5284;BME280;15377;48.540;9.268;2022-07-29T08:51:04;97354.88;;;24.42;100.00
5284;BME280;15377;48.540;9.268;2022-07-29T08:53:32;97357.09;;;24.51;100.00
5284;BME280;15377;48.540;9.268;2022-07-29T08:55:58;97341.16;;;24.46;100.00
5284;BME280;15377;48.540;9.268;2022-07-29T08:58:24;97353.53;;;24.65;100.00
5284;BME280;15377;48.540;9.268;2022-07-29T09:00:53;97359.88;;;24.73;100.00
5284;BME280;15377;48.540;9.268;2022-07-29T09:03:23;97362.47;;;24.86;100.00
5284;BME280;15377;48.540;9.268;2022-07-29T09:05:49;97364.72;;;24.88;100.00
5284;BME280;15377;48.540;9.268;2022-07-29T09:08:16;97369.34;;;25.00;100.00
5284;BME280;15377;48.540;9.268;2022-07-29T09:10:43;97377.75;;;25.15;100.00
5284;BME280;15377;48.540;9.268;2022-07-29T09:13:09;97371.66;;;25.34;100.00
5284;BME280;15377;48.540;9.268;2022-07-29T09:15:34;97365.00;;;25.46;100.00
5284;BME280;15377;48.540;9.268;2022-07-29T09:18:00;97370.63;;;25.78;100.00
5284;BME280;15377;48.540;9.268;2022-07-29T09:20:26;97360.91;;;25.96;100.00
5284;BME280;15377;48.540;9.268;2022-07-29T09:23:12;97357.66;;;25.75;100.00
5284;BME280;15377;48.540;9.268;2022-07-29T09:25:40;97365.66;;;25.86;100.00
5284;BME280;15377;48.540;9.268;2022-07-29T09:28:11;97364.56;;;26.06;100.00
5284;BME280;15377;48.540;9.268;2022-07-29T09:30:57;97366.44;;;26.28;100.00
5284;BME280;15377;48.540;9.268;2022-07-29T09:33:24;97348.59;;;26.43;100.00
5284;BME280;15377;48.540;9.268;2022-07-29T09:36:08;97366.44;;;26.70;100.00
5284;BME280;15377;48.540;9.268;2022-07-29T09:38:34;97370.28;;;27.25;100.00
5284;BME280;15377;48.540;9.268;2022-07-29T09:41:03;97348.97;;;27.15;100.00
5284;BME280;15377;48.540;9.268;2022-07-29T09:43:29;97357.13;;;27.63;100.00
5284;BME280;15377;48.540;9.268;2022-07-29T09:45:55;97354.19;;;28.07;100.00
5284;BME280;15377;48.540;9.268;2022-07-29T09:48:25;97368.28;;;28.43;100.00
5284;BME280;15377;48.540;9.268;2022-07-29T09:50:51;97369.94;;;28.65;100.00
5284;BME280;15377;48.540;9.268;2022-07-29T09:53:31;97367.69;;;28.63;99.59
5284;BME280;15377;48.540;9.268;2022-07-29T09:55:57;97342.31;;;28.27;99.26
5284;BME280;15377;48.540;9.268;2022-07-29T09:58:23;97351.84;;;28.32;93.14
5284;BME280;15377;48.540;9.268;2022-07-29T10:00:50;97361.44;;;28.55;96.96
5284;BME280;15377;48.540;9.268;2022-07-29T10:03:16;97356.84;;;28.60;94.25
5284;BME280;15377;48.540;9.268;2022-07-29T10:05:43;97362.06;;;28.92;98.18
5284;BME280;15377;48.540;9.268;2022-07-29T10:08:09;97350.16;;;28.84;92.81
5284;BME280;15377;48.540;9.268;2022-07-29T10:10:37;97349.94;;;28.44;91.56
5284;BME280;15377;48.540;9.268;2022-07-29T10:13:06;97348.19;;;28.58;94.37
5284;BME280;15377;48.540;9.268;2022-07-29T10:15:34;97354.16;;;28.81;97.48
5284;BME280;15377;48.540;9.268;2022-07-29T10:18:04;97337.03;;;28.60;88.33
5284;BME280;15377;48.540;9.268;2022-07-29T10:20:30;97335.97;;;28.46;88.64
5284;BME280;15377;48.540;9.268;2022-07-29T10:22:55;97343.25;;;28.39;91.58
5284;BME280;15377;48.540;9.268;2022-07-29T10:25:21;97323.31;;;27.92;91.53
5284;BME280;15377;48.540;9.268;2022-07-29T10:27:48;97329.53;;;27.81;95.76
5284;BME280;15377;48.540;9.268;2022-07-29T10:30:15;97329.88;;;28.04;100.00
5284;BME280;15377;48.540;9.268;2022-07-29T10:33:43;97332.63;;;28.21;96.35
5284;BME280;15377;48.540;9.268;2022-07-29T10:41:03;97333.44;;;28.69;97.02
5284;BME280;15377;48.540;9.268;2022-07-29T10:43:54;97323.13;;;28.83;86.83
5284;BME280;15377;48.540;9.268;2022-07-29T10:46:20;97326.69;;;29.31;90.53
5284;BME280;15377;48.540;9.268;2022-07-29T10:54:45;97315.63;;;30.57;91.71
5284;BME280;15377;48.540;9.268;2022-07-29T10:59:42;97295.47;;;30.74;80.28
5284;BME280;15377;48.540;9.268;2022-07-29T11:04:59;97302.69;;;30.44;71.41
5284;BME280;15377;48.540;9.268;2022-07-29T11:07:27;97298.38;;;29.92;74.94
5284;BME280;15377;48.540;9.268;2022-07-29T11:15:05;97319.13;;;30.46;86.93
5284;BME280;15377;48.540;9.268;2022-07-29T11:23:26;97299.94;;;30.77;83.24
5284;BME280;15377;48.540;9.268;2022-07-29T11:26:16;97310.66;;;30.67;77.02
5284;BME280;15377;48.540;9.268;2022-07-29T11:28:59;97303.97;;;31.39;79.89
5284;BME280;15377;48.540;9.268;2022-07-29T11:31:42;97298.66;;;31.45;73.25
5284;BME280;15377;48.540;9.268;2022-07-29T11:34:24;97295.69;;;31.43;74.39
5284;BME280;15377;48.540;9.268;2022-07-29T11:39:46;97311.66;;;31.48;73.94
5284;BME280;15377;48.540;9.268;2022-07-29T11:45:16;97327.94;;;30.29;73.71
5284;BME280;15377;48.540;9.268;2022-07-29T11:50:16;97358.69;;;27.57;88.26
5284;BME280;15377;48.540;9.268;2022-07-29T11:52:45;97337.78;;;26.73;94.01
5284;BME280;15377;48.540;9.268;2022-07-29T11:55:20;97364.56;;;26.48;94.50
5284;BME280;15377;48.540;9.268;2022-07-29T11:57:56;97339.31;;;25.91;100.00
5284;BME280;15377;48.540;9.268;2022-07-29T12:00:39;97365.47;;;27.44;100.00
5284;BME280;15377;48.540;9.268;2022-07-29T12:03:07;97366.03;;;27.60;91.92
5284;BME280;15377;48.540;9.268;2022-07-29T12:05:41;97364.25;;;28.00;92.62
5284;BME280;15377;48.540;9.268;2022-07-29T12:08:18;97365.34;;;28.88;89.25
5284;BME280;15377;48.540;9.268;2022-07-29T12:10:45;97339.25;;;30.08;80.06
5284;BME280;15377;48.540;9.268;2022-07-29T12:13:12;97358.66;;;30.11;74.44
5284;BME280;15377;48.540;9.268;2022-07-29T12:15:39;97373.56;;;28.94;78.29
5284;BME280;15377;48.540;9.268;2022-07-29T12:18:17;97371.78;;;27.52;84.52
5284;BME280;15377;48.540;9.268;2022-07-29T12:20:43;97365.00;;;26.95;88.22
5284;BME280;15377;48.540;9.268;2022-07-29T12:23:10;97369.78;;;26.34;90.07
5284;BME280;15377;48.540;9.268;2022-07-29T12:25:38;97361.16;;;25.83;93.55
5284;BME280;15377;48.540;9.268;2022-07-29T12:28:05;97363.28;;;25.51;96.31
5284;BME280;15377;48.540;9.268;2022-07-29T12:30:40;97358.53;;;25.21;98.07
5284;BME280;15377;48.540;9.268;2022-07-29T12:35:47;97369.94;;;25.38;100.00
5284;BME280;15377;48.540;9.268;2022-07-29T12:38:14;97372.06;;;25.30;100.00
5284;BME280;15377;48.540;9.268;2022-07-29T12:40:40;97354.84;;;25.11;100.00
5284;BME280;15377;48.540;9.268;2022-07-29T12:45:37;97373.06;;;25.10;100.00
5284;BME280;15377;48.540;9.268;2022-07-29T12:48:03;97390.50;;;25.16;100.00
5284;BME280;15377;48.540;9.268;2022-07-29T12:50:28;97390.28;;;24.82;100.00
5284;BME280;15377;48.540;9.268;2022-07-29T12:52:54;97393.09;;;24.75;100.00
5284;BME280;15377;48.540;9.268;2022-07-29T12:55:42;97374.53;;;24.64;100.00
5284;BME280;15377;48.540;9.268;2022-07-29T12:58:08;97390.78;;;24.88;100.00
5284;BME280;15377;48.540;9.268;2022-07-29T13:00:33;97378.69;;;25.10;100.00
5284;BME280;15377;48.540;9.268;2022-07-29T13:02:59;97394.81;;;25.57;100.00
5284;BME280;15377;48.540;9.268;2022-07-29T13:05:44;97388.50;;;25.73;100.00
5284;BME280;15377;48.540;9.268;2022-07-29T13:08:14;97378.03;;;25.66;100.00
5284;BME280;15377;48.540;9.268;2022-07-29T13:10:41;97371.91;;;26.09;100.00
5284;BME280;15377;48.540;9.268;2022-07-29T13:13:12;97368.97;;;26.41;100.00
5284;BME280;15377;48.540;9.268;2022-07-29T13:15:40;97379.63;;;26.67;100.00
5284;BME280;15377;48.540;9.268;2022-07-29T13:18:33;97374.25;;;26.37;100.00
5284;BME280;15377;48.540;9.268;2022-07-29T13:21:15;97369.63;;;26.32;100.00
5284;BME280;15377;48.540;9.268;2022-07-29T13:23:41;97368.28;;;26.33;100.00
5284;BME280;15377;48.540;9.268;2022-07-29T13:26:10;97359.97;;;26.18;100.00
5284;BME280;15377;48.540;9.268;2022-07-29T13:28:39;97359.97;;;26.18;100.00
5284;BME280;15377;48.540;9.268;2022-07-29T13:31:05;97356.59;;;25.95;100.00
5284;BME280;15377;48.540;9.268;2022-07-29T13:33:30;97340.44;;;25.64;100.00
5284;BME280;15377;48.540;9.268;2022-07-29T13:35:56;97352.41;;;25.47;100.00
5284;BME280;15377;48.540;9.268;2022-07-29T13:38:21;97391.16;;;25.39;100.00
5284;BME280;15377;48.540;9.268;2022-07-29T13:40:47;97421.78;;;24.81;100.00
5284;BME280;15377;48.540;9.268;2022-07-29T13:43:12;97425.25;;;24.19;100.00
5284;BME280;15377;48.540;9.268;2022-07-29T13:45:38;97437.72;;;23.73;100.00
5284;BME280;15377;48.540;9.268;2022-07-29T13:48:03;97369.97;;;22.41;100.00
5284;BME280;15377;48.540;9.268;2022-07-29T13:50:29;97338.66;;;21.53;100.00
5284;BME280;15377;48.540;9.268;2022-07-29T13:52:54;97328.94;;;21.13;100.00
5284;BME280;15377;48.540;9.268;2022-07-29T13:55:20;97337.03;;;21.03;100.00
5284;BME280;15377;48.540;9.268;2022-07-29T13:57:46;97333.25;;;21.01;100.00
5284;BME280;15377;48.540;9.268;2022-07-29T14:00:12;97313.94;;;20.90;100.00
5284;BME280;15377;48.540;9.268;2022-07-29T14:02:38;97311.75;;;20.96;100.00